createdAt,value
2023-05-01T00:00:53.220Z,99231.70
2023-05-01T00:03:20.403Z,99235.52
2023-05-01T00:05:47.779Z,99232.42
2023-05-01T00:08:15.426Z,99236.88
2023-05-01T00:10:42.468Z,99238.52
2023-05-01T00:13:09.598Z,99243.10
2023-05-01T00:15:36.910Z,99247.49
2023-05-01T00:18:03.854Z,99249.36
2023-05-01T00:20:31.508Z,99255.92
2023-05-01T00:22:58.434Z,99259.68
2023-05-01T00:25:25.356Z,99259.23
2023-05-01T00:27:52.124Z,99258.09
2023-05-01T00:30:18.899Z,99259.23
2023-05-01T00:32:45.939Z,99261.41
2023-05-01T00:35:13.006Z,99260.44
2023-05-01T00:37:39.924Z,99261.11
2023-05-01T00:40:08.479Z,99260.18
2023-05-01T00:42:36.702Z,99258.98
2023-05-01T00:45:03.793Z,99263.17
2023-05-01T00:47:31.019Z,99261.21
2023-05-01T00:49:58.162Z,99264.77
2023-05-01T00:52:25.580Z,99267.48
2023-05-01T00:54:52.762Z,99266.22
2023-05-01T00:57:20.234Z,99262.98
2023-05-01T00:59:47.778Z,99263.95
2023-05-01T01:02:15.126Z,99266.66
2023-05-01T01:04:44.445Z,99268.41
2023-05-01T01:07:31.945Z,99265.91
2023-05-01T01:10:11.037Z,99268.21
2023-05-01T01:13:03.974Z,99271.20
2023-05-01T01:15:50.570Z,99272.86
2023-05-01T01:18:25.164Z,99269.23
2023-05-01T01:20:56.173Z,99269.70
2023-05-01T01:23:38.789Z,99270.64
2023-05-01T01:26:24.610Z,99272.48
2023-05-01T01:29:22.505Z,99269.19
2023-05-01T01:31:49.269Z,99272.11
2023-05-01T01:34:27.280Z,99272.02
2023-05-01T01:37:02.159Z,99275.21
2023-05-01T01:39:30.337Z,99271.83
2023-05-01T01:44:43.894Z,99278.84
2023-05-01T01:47:12.281Z,99281.13
2023-05-01T01:49:42.805Z,99289.65
2023-05-01T01:52:10.877Z,99294.19
2023-05-01T01:54:39.492Z,99298.52
2023-05-01T01:57:07.656Z,99301.59
2023-05-01T01:59:35.491Z,99303.83
2023-05-01T02:02:03.572Z,99303.41
2023-05-01T02:04:30.917Z,99308.35
2023-05-01T02:06:58.504Z,99315.20
2023-05-01T02:09:27.066Z,99312.40
2023-05-01T02:11:55.986Z,99311.19
2023-05-01T02:14:24.235Z,99315.26
2023-05-01T02:16:51.518Z,99322.28
2023-05-01T02:19:19.266Z,99322.86
2023-05-01T02:21:46.902Z,99322.61
2023-05-01T02:24:14.572Z,99331.35
2023-05-01T02:26:48.140Z,99340.75
2023-05-01T02:29:15.175Z,99340.13
2023-05-01T02:31:42.296Z,99338.55
2023-05-01T02:34:09.811Z,99342.60
2023-05-01T02:36:36.829Z,99345.50
2023-05-01T02:39:04.388Z,99339.84
2023-05-01T02:41:31.518Z,99343.45
2023-05-01T02:44:04.355Z,99347.23
2023-05-01T02:46:37.096Z,99353.30
2023-05-01T02:49:04.186Z,99362.23
2023-05-01T02:51:34.105Z,99361.73
2023-05-01T02:54:01.356Z,99365.55
2023-05-01T02:56:29.149Z,99365.14
2023-05-01T02:58:57.126Z,99363.23
2023-05-01T03:01:24.389Z,99372.35
2023-05-01T03:03:51.880Z,99372.24
2023-05-01T03:06:19.799Z,99376.33
2023-05-01T03:08:48.072Z,99380.73
2023-05-01T03:11:15.941Z,99383.55
2023-05-01T03:13:43.797Z,99387.83
2023-05-01T03:16:11.378Z,99390.42
2023-05-01T03:18:38.580Z,99389.73
2023-05-01T03:21:05.742Z,99392.90
2023-05-01T03:23:33.277Z,99395.23
2023-05-01T03:26:00.328Z,99396.35
2023-05-01T03:28:27.526Z,99397.59
2023-05-01T03:30:54.913Z,99402.76
2023-05-01T03:33:22.291Z,99402.38
2023-05-01T03:35:49.590Z,99405.84
2023-05-01T03:38:16.777Z,99406.40
2023-05-01T03:41:02.565Z,99413.64
2023-05-01T03:43:47.908Z,99414.18
2023-05-01T03:46:28.669Z,99415.46
2023-05-01T03:48:55.998Z,99419.88
2023-05-01T03:51:23.544Z,99421.93
2023-05-01T03:53:52.431Z,99424.11
2023-05-01T03:56:20.194Z,99428.80
2023-05-01T03:58:47.660Z,99432.60
2023-05-01T04:01:15.421Z,99433.79
2023-05-01T04:03:44.275Z,99431.58
2023-05-01T04:06:11.718Z,99436.73
2023-05-01T04:08:39.079Z,99436.48
2023-05-01T04:11:06.951Z,99439.27
2023-05-01T04:13:33.922Z,99441.16
2023-05-01T04:16:02.392Z,99442.15
2023-05-01T04:18:29.457Z,99442.36
2023-05-01T04:20:59.229Z,99445.98
2023-05-01T04:23:26.753Z,99448.02
2023-05-01T04:25:55.216Z,99455.44
2023-05-01T04:28:22.443Z,99456.77
2023-05-01T04:30:49.549Z,99454.14
2023-05-01T04:33:16.904Z,99457.89
2023-05-01T04:35:44.230Z,99454.54
2023-05-01T04:38:11.842Z,99458.86
2023-05-01T04:40:39.639Z,99460.08
2023-05-01T04:43:06.612Z,99460.59
2023-05-01T04:45:33.757Z,99467.46
2023-05-01T04:48:01.873Z,99468.14
2023-05-01T04:50:29.061Z,99467.77
2023-05-01T04:52:56.625Z,99473.86
2023-05-01T04:55:23.935Z,99476.93
2023-05-01T04:58:11.591Z,99485.07
2023-05-01T05:00:39.465Z,99489.88
2023-05-01T05:03:08.306Z,99495.21
2023-05-01T05:05:35.656Z,99501.13
2023-05-01T05:08:04.451Z,99501.50
2023-05-01T05:10:36.470Z,99496.45
2023-05-01T05:13:21.811Z,99505.13
2023-05-01T05:15:54.966Z,99504.52
2023-05-01T05:18:23.242Z,99507.89
2023-05-01T05:20:51.175Z,99506.57
2023-05-01T05:23:18.420Z,99518.91
2023-05-01T05:25:45.670Z,99521.80
2023-05-01T05:28:13.533Z,99516.77
2023-05-01T05:30:40.868Z,99520.20
2023-05-01T05:33:09.155Z,99526.91
2023-05-01T05:35:36.734Z,99536.20
2023-05-01T05:38:04.472Z,99536.58
2023-05-01T05:40:33.671Z,99537.98
2023-05-01T05:43:01.270Z,99536.11
2023-05-01T05:45:29.493Z,99542.16
2023-05-01T05:47:57.422Z,99544.94
2023-05-01T05:50:25.570Z,99544.19
2023-05-01T05:52:52.708Z,99545.41
2023-05-01T05:55:19.874Z,99546.89
2023-05-01T05:57:59.440Z,99545.80
2023-05-01T06:00:26.793Z,99547.90
2023-05-01T06:02:54.427Z,99551.55
2023-05-01T06:05:22.152Z,99556.53
2023-05-01T06:07:49.432Z,99557.92
2023-05-01T06:10:17.266Z,99554.88
2023-05-01T06:12:51.875Z,99556.77
2023-05-01T06:15:25.200Z,99558.96
2023-05-01T06:17:54.055Z,99561.94
2023-05-01T06:20:21.326Z,99569.08
2023-05-01T06:22:49.294Z,99568.96
2023-05-01T06:25:21.895Z,99581.98
2023-05-01T06:27:52.893Z,99580.24
2023-05-01T06:30:22.148Z,99581.56
2023-05-01T06:32:50.645Z,99576.39
2023-05-01T06:35:17.982Z,99578.25
2023-05-01T06:37:45.081Z,99585.90
2023-05-01T06:40:12.428Z,99590.79
2023-05-01T06:42:39.922Z,99594.27
2023-05-01T06:45:08.160Z,99590.64
2023-05-01T06:47:35.312Z,99591.29
2023-05-01T06:50:05.265Z,99593.91
2023-05-01T06:52:33.812Z,99597.28
2023-05-01T06:55:01.505Z,99602.11
2023-05-01T06:57:28.854Z,99600.83
2023-05-01T06:59:56.215Z,99600.28
2023-05-01T07:02:23.594Z,99603.83
2023-05-01T07:04:51.097Z,99598.84
2023-05-01T07:07:18.177Z,99597.43
2023-05-01T07:09:45.485Z,99600.31
2023-05-01T07:12:12.617Z,99604.02
2023-05-01T07:14:41.743Z,99609.27
2023-05-01T07:17:09.464Z,99606.83
2023-05-01T07:19:36.604Z,99613.98
2023-05-01T07:22:05.099Z,99610.26
2023-05-01T07:24:32.286Z,99620.71
2023-05-01T07:27:00.236Z,99622.98
2023-05-01T07:29:27.346Z,99623.57
2023-05-01T07:31:54.754Z,99628.23
2023-05-01T07:34:22.082Z,99630.40
2023-05-01T07:36:49.309Z,99635.08
2023-05-01T07:39:17.879Z,99639.39
2023-05-01T07:41:45.222Z,99638.84
2023-05-01T07:44:12.352Z,99633.19
2023-05-01T07:46:39.607Z,99638.35
2023-05-01T07:49:06.751Z,99641.48
2023-05-01T07:51:33.816Z,99644.59
2023-05-01T07:54:04.780Z,99649.80
2023-05-01T07:56:32.136Z,99651.30
2023-05-01T07:58:59.412Z,99659.29
2023-05-01T08:01:26.640Z,99656.62
2023-05-01T08:03:53.913Z,99665.46
2023-05-01T08:06:21.243Z,99665.81
2023-05-01T08:08:48.550Z,99664.48
2023-05-01T08:11:16.736Z,99664.21
2023-05-01T08:13:43.822Z,99661.64
2023-05-01T08:16:11.035Z,99662.06
2023-05-01T08:18:38.233Z,99668.16
2023-05-01T08:21:05.564Z,99671.59
2023-05-01T08:23:33.185Z,99672.11
2023-05-01T08:26:00.567Z,99669.91
2023-05-01T08:28:27.600Z,99670.88
2023-05-01T08:30:54.697Z,99671.91
2023-05-01T08:33:21.969Z,99663.74
2023-05-01T08:35:49.257Z,99662.05
2023-05-01T08:38:16.558Z,99660.23
2023-05-01T08:40:47.630Z,99664.71
2023-05-01T08:43:14.568Z,99666.58
2023-05-01T08:45:41.578Z,99669.86
2023-05-01T08:48:10.619Z,99676.19
2023-05-01T08:50:37.820Z,99676.08
2023-05-01T08:53:05.583Z,99672.86
2023-05-01T08:55:32.796Z,99673.00
2023-05-01T08:58:00.111Z,99673.35
2023-05-01T09:00:28.040Z,99677.23
2023-05-01T09:02:55.469Z,99679.73
2023-05-01T09:05:22.671Z,99686.66
2023-05-01T09:07:49.906Z,99684.88
2023-05-01T09:10:18.496Z,99686.58
2023-05-01T09:12:48.156Z,99689.02
2023-05-01T09:15:15.568Z,99692.43
2023-05-01T09:17:42.872Z,99692.73
2023-05-01T09:20:10.510Z,99691.20
2023-05-01T09:22:37.707Z,99687.26
2023-05-01T09:25:05.435Z,99685.45
2023-05-01T09:27:35.246Z,99695.21
2023-05-01T09:30:02.366Z,99691.85
2023-05-01T09:32:30.010Z,99694.55
2023-05-01T09:35:10.719Z,99693.66
2023-05-01T09:37:38.183Z,99694.13
2023-05-01T09:40:12.315Z,99695.09
2023-05-01T09:42:40.159Z,99697.34
2023-05-01T09:45:16.320Z,99694.70
2023-05-01T09:47:46.589Z,99696.38
2023-05-01T09:50:29.974Z,99688.13
2023-05-01T09:52:57.296Z,99688.77
2023-05-01T09:55:25.920Z,99697.55
2023-05-01T09:57:53.498Z,99694.64
2023-05-01T10:00:22.423Z,99706.29
2023-05-01T10:02:50.384Z,99709.19
2023-05-01T10:05:18.725Z,99705.35
2023-05-01T10:08:02.600Z,99705.31
2023-05-01T10:10:30.003Z,99696.36
2023-05-01T10:12:57.306Z,99700.00
2023-05-01T10:15:27.009Z,99703.27
2023-05-01T10:17:55.149Z,99712.39
2023-05-01T10:20:23.207Z,99713.34
2023-05-01T10:22:50.799Z,99719.80
2023-05-01T10:25:18.208Z,99714.96
2023-05-01T10:27:45.628Z,99707.90
2023-05-01T10:30:13.049Z,99711.33
2023-05-01T10:32:41.637Z,99715.87
2023-05-01T10:35:11.898Z,99722.36
2023-05-01T10:37:39.098Z,99725.13
2023-05-01T10:40:43.744Z,99719.16
2023-05-01T10:43:28.781Z,99715.39
2023-05-01T10:46:22.086Z,99712.11
2023-05-01T10:48:56.364Z,99720.91
2023-05-01T10:51:28.194Z,99718.94
2023-05-01T10:54:14.255Z,99722.84
2023-05-01T10:56:43.542Z,99722.36
2023-05-01T10:59:11.765Z,99723.72
2023-05-01T11:01:40.196Z,99723.22
2023-05-01T11:04:08.554Z,99724.80
2023-05-01T11:06:36.775Z,99726.17
2023-05-01T11:09:39.568Z,99722.70
2023-05-01T11:12:07.274Z,99728.77
2023-05-01T11:15:08.953Z,99732.54
2023-05-01T11:17:43.281Z,99727.64
2023-05-01T11:20:11.958Z,99726.80
2023-05-01T11:22:40.913Z,99721.70
2023-05-01T11:25:27.971Z,99726.10
2023-05-01T11:27:56.870Z,99727.23
2023-05-01T11:30:24.101Z,99726.71
2023-05-01T11:32:51.637Z,99724.95
2023-05-01T11:35:23.181Z,99728.61
2023-05-01T11:37:51.507Z,99727.22
2023-05-01T11:40:22.971Z,99722.63
2023-05-01T11:42:51.256Z,99726.78
2023-05-01T11:45:19.725Z,99726.77
2023-05-01T11:47:47.200Z,99726.80
2023-05-01T11:50:14.442Z,99727.38
2023-05-01T11:52:46.285Z,99721.36
2023-05-01T11:55:13.470Z,99720.23
2023-05-01T11:57:51.076Z,99721.27
2023-05-01T12:00:28.605Z,99725.17
2023-05-01T12:03:00.524Z,99725.52
2023-05-01T12:05:28.786Z,99725.44
2023-05-01T12:08:18.950Z,99730.68
2023-05-01T12:10:58.532Z,99735.88
2023-05-01T12:13:26.377Z,99738.40
2023-05-01T12:15:54.668Z,99739.57
2023-05-01T12:18:22.939Z,99737.45
2023-05-01T12:20:52.340Z,99731.12
2023-05-01T12:23:20.994Z,99734.40
2023-05-01T12:25:48.241Z,99737.60
2023-05-01T12:28:17.351Z,99735.39
2023-05-01T12:30:46.047Z,99728.53
2023-05-01T12:33:13.925Z,99725.49
2023-05-01T12:35:41.363Z,99726.77
2023-05-01T12:38:19.217Z,99735.34
2023-05-01T12:40:55.921Z,99735.90
2023-05-01T12:43:30.294Z,99729.85
2023-05-01T12:45:57.589Z,99733.03
2023-05-01T12:48:24.933Z,99734.28
2023-05-01T12:50:55.034Z,99735.75
2023-05-01T12:53:23.585Z,99736.33
2023-05-01T12:55:53.115Z,99740.73
2023-05-01T12:58:20.307Z,99735.21
2023-05-01T13:00:54.902Z,99739.30
2023-05-01T13:03:26.951Z,99742.42
2023-05-01T13:05:55.168Z,99741.89
2023-05-01T13:08:29.626Z,99748.13
2023-05-01T13:10:58.185Z,99744.55
2023-05-01T13:13:26.928Z,99745.45
2023-05-01T13:15:54.304Z,99744.30
2023-05-01T13:18:21.658Z,99742.54
2023-05-01T13:20:48.982Z,99747.79
2023-05-01T13:23:16.115Z,99749.20
2023-05-01T13:25:43.440Z,99753.55
2023-05-01T13:28:11.905Z,99751.48
2023-05-01T13:30:39.600Z,99752.10
2023-05-01T13:33:08.009Z,99756.14
2023-05-01T13:35:35.978Z,99757.13
2023-05-01T13:38:03.286Z,99756.77
2023-05-01T13:40:30.525Z,99755.92
2023-05-01T13:42:57.541Z,99754.27
2023-05-01T13:45:24.680Z,99757.39
2023-05-01T13:47:52.189Z,99767.96
2023-05-01T13:50:19.838Z,99766.67
2023-05-01T13:52:47.830Z,99763.80
2023-05-01T13:55:15.003Z,99766.27
2023-05-01T13:57:42.615Z,99763.77
2023-05-01T14:00:49.675Z,99763.11
2023-05-01T14:03:18.976Z,99765.11
2023-05-01T14:05:46.210Z,99768.13
2023-05-01T14:08:13.346Z,99765.70
2023-05-01T14:10:40.440Z,99762.02
2023-05-01T14:13:07.912Z,99762.20
2023-05-01T14:15:35.589Z,99769.30
2023-05-01T14:18:06.953Z,99770.20
2023-05-01T14:20:34.166Z,99773.98
2023-05-01T14:23:01.502Z,99778.44
2023-05-01T14:25:35.536Z,99780.58
2023-05-01T14:28:06.120Z,99775.17
2023-05-01T14:30:38.610Z,99782.95
2023-05-01T14:33:11.330Z,99790.60
2023-05-01T14:35:48.673Z,99793.77
2023-05-01T14:38:18.107Z,99787.52
2023-05-01T14:40:45.533Z,99788.25
2023-05-01T14:43:22.335Z,99786.35
2023-05-01T14:45:50.309Z,99787.91
2023-05-01T14:48:21.253Z,99795.23
2023-05-01T14:50:48.508Z,99799.23
2023-05-01T14:53:15.921Z,99799.80
2023-05-01T14:55:43.048Z,99800.25
2023-05-01T14:58:10.258Z,99806.95
2023-05-01T15:00:37.812Z,99807.10
2023-05-01T15:03:04.984Z,99805.73
2023-05-01T15:05:32.505Z,99808.41
2023-05-01T15:08:00.776Z,99805.20
2023-05-01T15:10:29.034Z,99807.95
2023-05-01T15:12:56.291Z,99811.42
2023-05-01T15:15:23.448Z,99817.71
2023-05-01T15:17:52.954Z,99817.00
2023-05-01T15:20:20.264Z,99816.48
2023-05-01T15:22:47.385Z,99817.30
2023-05-01T15:25:15.002Z,99817.16
2023-05-01T15:27:43.884Z,99811.38
2023-05-01T15:30:12.084Z,99815.45
2023-05-01T15:32:39.235Z,99815.74
2023-05-01T15:35:06.528Z,99817.85
2023-05-01T15:37:33.784Z,99821.52
2023-05-01T15:40:01.310Z,99824.26
2023-05-01T15:42:28.444Z,99826.00
2023-05-01T15:44:55.494Z,99822.69
2023-05-01T15:47:22.580Z,99825.84
2023-05-01T15:49:50.134Z,99827.73
2023-05-01T15:52:17.388Z,99833.31
2023-05-01T15:54:46.897Z,99839.37
2023-05-01T15:57:14.453Z,99844.88
2023-05-01T15:59:41.577Z,99846.70
2023-05-01T16:02:09.051Z,99852.98
2023-05-01T16:04:36.419Z,99857.50
2023-05-01T16:07:03.602Z,99848.19
2023-05-01T16:09:32.028Z,99862.79
2023-05-01T16:12:00.028Z,99867.75
2023-05-01T16:14:27.309Z,99872.70
2023-05-01T16:16:54.702Z,99876.60
2023-05-01T16:19:21.989Z,99884.41
2023-05-01T16:21:49.144Z,99890.21
2023-05-01T16:24:16.220Z,99893.69
2023-05-01T16:26:43.756Z,99898.28
2023-05-01T16:29:11.028Z,99905.23
2023-05-01T16:31:39.594Z,99906.58
2023-05-01T16:34:07.672Z,99911.14
2023-05-01T16:36:36.334Z,99915.31
2023-05-01T16:39:04.281Z,99917.46
2023-05-01T16:41:31.866Z,99917.20
2023-05-01T16:43:59.656Z,99921.17
2023-05-01T16:46:26.730Z,99924.88
2023-05-01T16:48:53.860Z,99929.40
2023-05-01T16:51:21.165Z,99931.42
2023-05-01T16:53:48.289Z,99936.40
2023-05-01T16:56:16.003Z,99939.83
2023-05-01T16:58:44.077Z,99941.89
2023-05-01T17:01:11.449Z,99947.34
2023-05-01T17:03:38.899Z,99948.22
2023-05-01T17:06:06.299Z,99956.21
2023-05-01T17:08:33.405Z,99956.13
2023-05-01T17:11:00.916Z,99961.53
2023-05-01T17:13:28.092Z,99967.77
2023-05-01T17:15:55.291Z,99967.40
2023-05-01T17:18:22.551Z,99973.90
2023-05-01T17:20:49.591Z,99975.67
2023-05-01T17:23:17.333Z,99978.89
2023-05-01T17:25:45.052Z,99981.55
2023-05-01T17:28:12.334Z,99982.43
2023-05-01T17:30:39.489Z,99986.95
2023-05-01T17:33:06.946Z,99989.23
2023-05-01T17:35:34.241Z,99993.10
2023-05-01T17:38:01.322Z,99997.98
2023-05-01T17:40:28.587Z,100001.61
2023-05-01T17:42:55.763Z,100008.05
2023-05-01T17:45:22.897Z,100011.36
2023-05-01T17:47:50.100Z,100013.40
2023-05-01T17:50:18.281Z,100020.89
2023-05-01T17:52:45.511Z,100021.98
2023-05-01T17:55:14.943Z,100027.20
2023-05-01T17:57:44.463Z,100032.48
2023-05-01T18:00:12.467Z,100035.92
2023-05-01T18:02:39.920Z,100043.10
2023-05-01T18:05:07.757Z,100047.48
2023-05-01T18:07:34.991Z,100052.16
2023-05-01T18:10:02.396Z,100056.17
2023-05-01T18:12:30.213Z,100056.63
2023-05-01T18:14:57.304Z,100060.70
2023-05-01T18:17:25.395Z,100062.48
2023-05-01T18:19:52.672Z,100070.75
2023-05-01T18:22:20.374Z,100074.64
2023-05-01T18:24:47.824Z,100079.84
2023-05-01T18:27:14.950Z,100077.58
2023-05-01T18:29:42.242Z,100081.37
2023-05-01T18:32:12.785Z,100082.98
2023-05-01T18:34:41.008Z,100085.60
2023-05-01T18:37:08.452Z,100090.14
2023-05-01T18:39:35.681Z,100094.05
2023-05-01T18:42:04.020Z,100092.48
2023-05-01T18:44:31.597Z,100096.98
2023-05-01T18:46:58.846Z,100100.56
2023-05-01T18:49:26.142Z,100098.92
2023-05-01T18:51:53.287Z,100100.96
2023-05-01T18:54:20.565Z,100107.47
2023-05-01T18:56:47.778Z,100106.70
2023-05-01T18:59:14.742Z,100109.20
2023-05-01T19:01:41.997Z,100113.26
2023-05-01T19:04:09.180Z,100115.38
2023-05-01T19:06:36.451Z,100114.71
2023-05-01T19:09:03.812Z,100115.49
2023-05-01T19:11:32.001Z,100116.83
2023-05-01T19:13:59.083Z,100118.98
2023-05-01T19:16:26.483Z,100122.56
2023-05-01T19:18:53.820Z,100121.52
2023-05-01T19:21:21.408Z,100122.17
2023-05-01T19:23:49.347Z,100124.17
2023-05-01T19:26:16.692Z,100126.16
2023-05-01T19:28:43.823Z,100125.58
2023-05-01T19:31:12.428Z,100127.84
2023-05-01T19:33:41.390Z,100132.19
2023-05-01T19:36:08.416Z,100136.07
2023-05-01T19:38:35.815Z,100135.23
2023-05-01T19:41:03.285Z,100137.55
2023-05-01T19:43:30.563Z,100142.11
2023-05-01T19:45:57.852Z,100143.38
2023-05-01T19:48:25.001Z,100139.77
2023-05-01T19:50:52.235Z,100140.79
2023-05-01T19:53:19.378Z,100146.23
2023-05-01T19:55:47.995Z,100149.19
2023-05-01T19:58:15.810Z,100146.58
2023-05-01T20:00:42.966Z,100151.27
2023-05-01T20:03:10.991Z,100149.93
2023-05-01T20:05:38.215Z,100155.27
2023-05-01T20:08:06.125Z,100155.38
2023-05-01T20:10:33.439Z,100158.56
2023-05-01T20:13:00.779Z,100157.86
2023-05-01T20:15:28.007Z,100159.27
2023-05-01T20:17:55.189Z,100160.75
2023-05-01T20:20:22.434Z,100165.91
2023-05-01T20:22:52.458Z,100166.61
2023-05-01T20:25:19.531Z,100168.54
2023-05-01T20:27:46.624Z,100169.03
2023-05-01T20:30:13.790Z,100169.77
2023-05-01T20:32:44.179Z,100171.23
2023-05-01T20:35:11.826Z,100173.30
2023-05-01T20:37:38.979Z,100173.44
2023-05-01T20:40:07.286Z,100174.19
2023-05-01T20:42:34.388Z,100174.52
2023-05-01T20:45:01.717Z,100175.51
2023-05-01T20:47:29.753Z,100176.46
2023-05-01T20:49:57.592Z,100174.34
2023-05-01T20:52:24.806Z,100178.31
2023-05-01T20:54:51.948Z,100176.77
2023-05-01T20:57:19.242Z,100180.92
2023-05-01T20:59:48.122Z,100186.46
2023-05-01T21:02:16.469Z,100186.77
2023-05-01T21:04:43.703Z,100190.42
2023-05-01T21:07:10.886Z,100193.20
2023-05-01T21:09:38.151Z,100194.83
2023-05-01T21:12:06.435Z,100196.54
2023-05-01T21:14:33.577Z,100197.36
2023-05-01T21:17:00.950Z,100200.02
2023-05-01T21:19:28.276Z,100202.45
2023-05-01T21:21:55.657Z,100208.25
2023-05-01T21:24:24.174Z,100209.90
2023-05-01T21:26:54.621Z,100213.04
2023-05-01T21:29:21.794Z,100214.79
2023-05-01T21:31:49.288Z,100216.54
2023-05-01T21:34:17.864Z,100219.20
2023-05-01T21:36:45.425Z,100220.16
2023-05-01T21:39:12.991Z,100220.15
2023-05-01T21:41:40.763Z,100223.82
2023-05-01T21:44:07.884Z,100224.91
2023-05-01T21:46:36.094Z,100228.52
2023-05-01T21:49:03.701Z,100226.17
2023-05-01T21:51:32.149Z,100229.23
2023-05-01T21:54:02.455Z,100234.48
2023-05-01T21:56:29.660Z,100238.25
2023-05-01T21:59:01.336Z,100240.23
2023-05-01T22:01:28.633Z,100240.70
2023-05-01T22:03:56.975Z,100249.54
2023-05-01T22:06:24.887Z,100252.71
2023-05-01T22:08:52.103Z,100254.56
2023-05-01T22:11:20.823Z,100257.47
2023-05-01T22:13:48.076Z,100255.22
2023-05-01T22:16:15.329Z,100254.67
2023-05-01T22:18:42.433Z,100258.57
2023-05-01T22:21:09.608Z,100259.42
2023-05-01T22:23:36.835Z,100263.79
2023-05-01T22:26:03.949Z,100266.94
2023-05-01T22:28:31.215Z,100265.50
2023-05-01T22:30:59.342Z,100267.77
2023-05-01T22:33:26.885Z,100270.42
2023-05-01T22:35:54.057Z,100274.78
2023-05-01T22:38:21.232Z,100273.52
2023-05-01T22:40:48.438Z,100272.11
2023-05-01T22:43:15.790Z,100276.59
2023-05-01T22:45:43.125Z,100276.97
2023-05-01T22:48:10.887Z,100276.69
2023-05-01T22:50:38.148Z,100274.63
2023-05-01T22:53:05.915Z,100275.25
2023-05-01T22:55:33.120Z,100277.62
2023-05-01T22:58:00.245Z,100276.63
2023-05-01T23:00:27.549Z,100275.81
2023-05-01T23:02:54.690Z,100280.94
2023-05-01T23:05:21.953Z,100281.95
2023-05-01T23:07:48.961Z,100279.26
2023-05-01T23:10:16.161Z,100283.84
2023-05-01T23:12:44.081Z,100285.77
2023-05-01T23:15:11.497Z,100289.78
2023-05-01T23:17:38.681Z,100290.45
2023-05-01T23:20:09.842Z,100285.80
2023-05-01T23:22:40.624Z,100286.34
2023-05-01T23:25:08.437Z,100285.79
2023-05-01T23:27:40.291Z,100287.78
2023-05-01T23:30:08.278Z,100284.85
2023-05-01T23:32:35.282Z,100285.85
2023-05-01T23:35:11.869Z,100285.37
2023-05-01T23:37:39.181Z,100287.98
2023-05-01T23:40:07.362Z,100289.60
2023-05-01T23:42:34.890Z,100288.99
2023-05-01T23:45:01.948Z,100292.23
2023-05-01T23:47:29.453Z,100293.86
2023-05-01T23:49:56.888Z,100292.75
2023-05-01T23:52:24.070Z,100296.42
2023-05-01T23:54:51.266Z,100294.61
2023-05-01T23:57:18.447Z,100296.61
2023-05-01T23:59:45.391Z,100303.52
